Terminal Aerodrome Forecast
Issued by NWS

Home | Current Version | Previous Version | Text Only | Print | Product List | Glossary On
Versions: 1 2 3 4 5 6 7 8 9 10 11 12 13 14 15 16 17 18 19 20 21 22 23 24 25 26 27 28
000
FTUS41 KRLX 231400 AAA
TAFCKB
TAF AMD
KCKB 231429Z 2314/2412 00000KT P6SM BKN014
     FM231600 VRB03KT P6SM BKN025
     FM232100 VRB03KT P6SM BKN030
     FM232300 VRB03KT P6SM SCT035
     FM240500 00000KT 5SM BR SCT035
     FM240800 10003KT 2SM BR SCT002=

USA.gov is the U.S. government's official web portal to all federal, state and local government web resources and services.